createdAt,value
2024-01-05T00:01:28.484Z,0.75
2024-01-05T00:03:54.996Z,0.84
2024-01-05T00:06:21.605Z,1.02
2024-01-05T00:08:48.049Z,1.06
2024-01-05T00:11:21.043Z,0.94
2024-01-05T00:13:48.176Z,1.05
2024-01-05T00:16:24.466Z,0.82
2024-01-05T00:18:51.588Z,0.91
2024-01-05T00:21:22.542Z,0.85
2024-01-05T00:23:52.034Z,0.87
2024-01-05T00:26:19.274Z,0.77
2024-01-05T00:28:46.515Z,0.94
2024-01-05T00:31:14.471Z,0.84
2024-01-05T00:33:41.867Z,0.94
2024-01-05T00:36:10.155Z,0.96
2024-01-05T00:38:37.111Z,0.96
2024-01-05T00:41:04.289Z,0.89
2024-01-05T00:43:30.885Z,0.64
2024-01-05T00:45:57.552Z,0.68
2024-01-05T00:48:24.448Z,0.67
2024-01-05T00:50:50.962Z,0.63
2024-01-05T00:53:17.422Z,0.80
2024-01-05T00:55:43.774Z,0.86
2024-01-05T00:58:10.243Z,0.71
2024-01-05T01:00:36.840Z,0.70
2024-01-05T01:03:04.395Z,0.80
2024-01-05T01:05:31.048Z,0.94
2024-01-05T01:07:57.538Z,0.73
2024-01-05T01:10:23.919Z,0.82
2024-01-05T01:12:50.288Z,0.86
2024-01-05T01:15:16.784Z,0.97
2024-01-05T01:17:43.274Z,0.75
2024-01-05T01:20:10.103Z,0.45
2024-01-05T01:22:36.561Z,0.40
2024-01-05T01:25:03.023Z,0.58
2024-01-05T01:27:30.424Z,0.72
2024-01-05T01:29:56.893Z,0.84
2024-01-05T01:32:23.875Z,0.87
2024-01-05T01:34:50.367Z,0.80
2024-01-05T01:37:16.813Z,0.67
2024-01-05T01:39:43.212Z,0.60
2024-01-05T01:42:09.702Z,0.65
2024-01-05T01:44:36.229Z,0.63
2024-01-05T01:47:03.290Z,0.79
2024-01-05T01:49:29.895Z,0.75
2024-01-05T01:51:56.483Z,0.75
2024-01-05T01:54:22.920Z,0.68
2024-01-05T01:56:50.435Z,0.87
2024-01-05T01:59:16.985Z,1.06
2024-01-05T02:01:44.296Z,1.04
2024-01-05T02:04:16.044Z,0.94
2024-01-05T02:06:46.037Z,0.94
2024-01-05T02:09:13.380Z,0.95
2024-01-05T02:11:43.108Z,0.68
2024-01-05T02:14:09.857Z,0.75
2024-01-05T02:16:36.238Z,1.00
2024-01-05T02:19:02.933Z,0.87
2024-01-05T02:21:39.820Z,0.92
2024-01-05T02:24:06.682Z,0.85
2024-01-05T02:26:33.246Z,0.94
2024-01-05T02:28:59.793Z,1.07
2024-01-05T02:31:26.401Z,1.01
2024-01-05T02:33:53.096Z,0.96
2024-01-05T02:36:19.814Z,0.90
2024-01-05T02:38:46.226Z,1.04
2024-01-05T02:41:12.607Z,1.04
2024-01-05T02:43:38.985Z,0.96
2024-01-05T02:46:05.399Z,0.78
2024-01-05T02:48:31.999Z,0.76
2024-01-05T02:50:58.546Z,0.75
2024-01-05T02:53:24.990Z,0.96
2024-01-05T02:55:51.379Z,1.22
2024-01-05T02:58:17.790Z,1.04
2024-01-05T03:00:44.922Z,1.02
2024-01-05T03:03:11.484Z,1.32
2024-01-05T03:05:38.012Z,1.12
2024-01-05T03:08:04.960Z,1.28
2024-01-05T03:10:31.380Z,1.13
2024-01-05T03:12:57.749Z,1.19
2024-01-05T03:15:24.198Z,1.34
2024-01-05T03:17:51.887Z,1.37
2024-01-05T03:20:19.124Z,1.35
2024-01-05T03:22:45.604Z,1.14
2024-01-05T03:25:11.991Z,1.06
2024-01-05T03:27:38.437Z,1.03
2024-01-05T03:30:05.533Z,0.97
2024-01-05T03:32:32.091Z,1.11
2024-01-05T03:34:58.524Z,0.98
2024-01-05T03:37:24.883Z,1.11
2024-01-05T03:39:51.280Z,1.11
2024-01-05T03:42:17.834Z,1.07
2024-01-05T03:44:44.241Z,1.14
2024-01-05T03:47:10.609Z,1.02
2024-01-05T03:49:37.631Z,1.01
2024-01-05T03:52:04.657Z,1.13
2024-01-05T03:54:31.211Z,0.96
2024-01-05T03:56:57.688Z,1.02
2024-01-05T03:59:24.156Z,1.04
2024-01-05T04:01:50.777Z,1.01
2024-01-05T04:04:17.457Z,0.96
2024-01-05T04:06:44.445Z,0.95
2024-01-05T04:09:11.396Z,0.98
2024-01-05T04:11:41.082Z,0.84
2024-01-05T04:14:08.291Z,0.89
2024-01-05T04:16:35.909Z,0.82
2024-01-05T04:19:03.054Z,0.85
2024-01-05T04:21:29.795Z,0.92
2024-01-05T04:23:58.303Z,0.82
2024-01-05T04:26:24.708Z,0.89
2024-01-05T04:28:51.173Z,0.82
2024-01-05T04:31:17.659Z,0.75
2024-01-05T04:33:44.367Z,0.73
2024-01-05T04:36:11.496Z,0.93
2024-01-05T04:38:38.106Z,0.81
2024-01-05T04:41:04.869Z,0.82
2024-01-05T04:43:31.351Z,0.82
2024-01-05T04:45:57.764Z,0.72
2024-01-05T04:48:24.276Z,0.81
2024-01-05T04:50:51.463Z,0.88
2024-01-05T04:53:18.113Z,0.80
2024-01-05T04:55:44.469Z,0.73
2024-01-05T04:58:10.875Z,0.69
2024-01-05T05:00:37.765Z,0.69
2024-01-05T05:03:04.579Z,0.66
2024-01-05T05:05:31.062Z,0.61
2024-01-05T05:07:58.420Z,0.69
2024-01-05T05:10:24.838Z,0.78
2024-01-05T05:12:51.292Z,0.84
2024-01-05T05:15:17.851Z,0.69
2024-01-05T05:17:44.345Z,0.68
2024-01-05T05:20:11.450Z,0.64
2024-01-05T05:22:37.856Z,0.73
2024-01-05T05:25:07.485Z,0.90
2024-01-05T05:27:34.669Z,0.88
2024-01-05T05:30:05.449Z,0.84
2024-01-05T05:32:32.007Z,0.79
2024-01-05T05:34:59.052Z,0.78
2024-01-05T05:37:25.504Z,0.77
2024-01-05T05:39:51.922Z,0.74
2024-01-05T05:42:18.374Z,0.74
2024-01-05T05:44:44.828Z,0.73
2024-01-05T05:47:11.410Z,0.72
2024-01-05T05:49:38.015Z,0.68
2024-01-05T05:52:07.948Z,0.76
2024-01-05T05:54:34.403Z,0.70
2024-01-05T05:57:01.087Z,0.74
2024-01-05T05:59:28.337Z,0.70
2024-01-05T06:01:55.492Z,0.71
2024-01-05T06:04:22.050Z,0.75
2024-01-05T06:06:48.524Z,1.08
2024-01-05T06:09:16.161Z,1.11
2024-01-05T06:11:43.015Z,1.02
2024-01-05T06:14:09.624Z,1.11
2024-01-05T06:16:36.034Z,1.09
2024-01-05T06:19:03.156Z,1.25
2024-01-05T06:21:29.671Z,1.12
2024-01-05T06:23:56.183Z,1.12
2024-01-05T06:26:22.783Z,1.12
2024-01-05T06:28:49.261Z,1.15
2024-01-05T06:31:15.765Z,1.12
2024-01-05T06:33:43.267Z,1.11
2024-01-05T06:36:09.756Z,1.09
2024-01-05T06:38:36.182Z,1.19
2024-01-05T06:41:02.577Z,1.25
2024-01-05T06:43:28.996Z,1.22
2024-01-05T06:45:55.410Z,1.28
2024-01-05T06:48:21.979Z,1.37
2024-01-05T06:50:48.680Z,1.41
2024-01-05T06:53:15.070Z,1.44
2024-01-05T06:55:41.461Z,1.42
2024-01-05T06:58:09.210Z,1.53
2024-01-05T07:00:39.095Z,1.57
2024-01-05T07:03:05.988Z,1.56
2024-01-05T07:05:32.526Z,1.56
2024-01-05T07:07:58.969Z,1.63
2024-01-05T07:10:25.354Z,1.64
2024-01-05T07:12:51.805Z,1.67
2024-01-05T07:15:18.284Z,1.78
2024-01-05T07:17:45.463Z,1.69
2024-01-05T07:20:14.937Z,1.82
2024-01-05T07:22:41.466Z,1.85
2024-01-05T07:25:10.656Z,1.89
2024-01-05T07:27:38.249Z,1.81
2024-01-05T07:30:05.406Z,1.84
2024-01-05T07:32:31.904Z,1.80
2024-01-05T07:34:58.444Z,1.74
2024-01-05T07:37:25.688Z,1.80
2024-01-05T07:39:52.105Z,1.97
2024-01-05T07:42:18.721Z,1.99
2024-01-05T07:44:45.101Z,1.99
2024-01-05T07:47:12.285Z,2.11
2024-01-05T07:49:38.813Z,2.18
2024-01-05T07:52:05.578Z,2.19
2024-01-05T07:54:32.255Z,2.26
2024-01-05T07:56:58.717Z,2.32
2024-01-05T07:59:25.457Z,2.22
2024-01-05T08:01:53.066Z,2.30
2024-01-05T08:04:19.932Z,2.42
2024-01-05T08:06:48.656Z,2.49
2024-01-05T08:09:15.139Z,2.57
2024-01-05T08:11:41.886Z,2.56
2024-01-05T08:14:11.169Z,2.63
2024-01-05T08:16:37.958Z,2.65
2024-01-05T08:19:04.503Z,2.68
2024-01-05T08:21:31.263Z,2.68
2024-01-05T08:23:57.810Z,2.79
2024-01-05T08:26:24.255Z,2.84
2024-01-05T08:28:50.674Z,2.91
2024-01-05T08:31:17.269Z,2.97
2024-01-05T08:33:44.670Z,2.98
2024-01-05T08:36:11.291Z,3.06
2024-01-05T08:38:37.684Z,3.08
2024-01-05T08:41:04.203Z,3.18
2024-01-05T08:43:31.210Z,3.13
2024-01-05T08:45:57.636Z,3.04
2024-01-05T08:48:24.135Z,3.26
2024-01-05T08:50:50.686Z,3.18
2024-01-05T08:53:21.089Z,3.22
2024-01-05T08:55:47.916Z,3.35
2024-01-05T08:58:14.335Z,3.26
2024-01-05T09:00:41.589Z,3.32
2024-01-05T09:03:08.186Z,3.28
2024-01-05T09:05:34.824Z,3.45
2024-01-05T09:08:01.356Z,3.48
2024-01-05T09:10:27.943Z,3.47
2024-01-05T09:12:54.493Z,3.47
2024-01-05T09:15:22.162Z,3.47
2024-01-05T09:17:48.744Z,3.62
2024-01-05T09:20:15.280Z,3.73
2024-01-05T09:22:41.791Z,3.82
2024-01-05T09:25:09.443Z,3.87
2024-01-05T09:27:36.186Z,3.92
2024-01-05T09:30:04.535Z,3.93
2024-01-05T09:32:31.710Z,3.97
2024-01-05T09:34:58.253Z,3.96
2024-01-05T09:37:24.682Z,4.03
2024-01-05T09:39:51.068Z,4.08
2024-01-05T09:42:17.636Z,4.21
2024-01-05T09:44:44.591Z,4.24
2024-01-05T09:47:11.936Z,4.14
2024-01-05T09:49:38.668Z,4.36
2024-01-05T09:52:05.426Z,4.27
2024-01-05T09:54:31.925Z,4.30
2024-01-05T09:56:58.925Z,4.53
2024-01-05T09:59:26.163Z,4.49
2024-01-05T10:01:55.000Z,4.45
2024-01-05T10:04:21.846Z,4.52
2024-01-05T10:06:59.552Z,4.59
2024-01-05T10:09:26.161Z,4.54
2024-01-05T10:11:52.568Z,4.62
2024-01-05T10:14:26.076Z,4.68
2024-01-05T10:17:07.924Z,4.79
2024-01-05T10:19:34.947Z,4.80
2024-01-05T10:22:09.690Z,4.83
2024-01-05T10:24:36.272Z,4.95
2024-01-05T10:27:05.527Z,4.99
2024-01-05T10:29:33.944Z,5.20
2024-01-05T10:32:18.789Z,5.20
2024-01-05T10:34:47.788Z,5.16
2024-01-05T10:37:16.059Z,5.13
2024-01-05T10:39:49.858Z,5.10
2024-01-05T10:42:19.000Z,5.23
2024-01-05T10:44:48.800Z,5.23
2024-01-05T10:47:18.549Z,5.24
2024-01-05T10:49:50.655Z,5.48
2024-01-05T10:52:21.854Z,5.64
2024-01-05T10:54:51.250Z,5.80
2024-01-05T10:57:19.563Z,5.68
2024-01-05T10:59:55.509Z,5.48
2024-01-05T11:02:42.890Z,5.46
2024-01-05T11:05:13.977Z,5.45
2024-01-05T11:07:42.085Z,5.75
2024-01-05T11:10:29.787Z,5.90
2024-01-05T11:13:38.475Z,6.70
2024-01-05T11:16:42.756Z,7.18
2024-01-05T11:19:18.341Z,7.19
2024-01-05T11:21:58.583Z,6.86
2024-01-05T11:24:25.778Z,6.52
2024-01-05T11:26:53.098Z,6.05
2024-01-05T11:29:48.200Z,5.86
2024-01-05T11:32:45.355Z,5.62
2024-01-05T11:35:18.005Z,5.52
2024-01-05T11:37:45.203Z,5.47
2024-01-05T11:40:27.004Z,5.58
2024-01-05T11:42:53.808Z,5.33
2024-01-05T11:45:50.955Z,5.40
2024-01-05T11:48:36.679Z,5.47
2024-01-05T11:51:04.213Z,5.44
2024-01-05T11:53:31.474Z,5.52
2024-01-05T11:56:00.147Z,5.58
2024-01-05T11:58:33.153Z,5.70
2024-01-05T12:01:01.004Z,5.82
2024-01-05T12:03:28.328Z,5.87
2024-01-05T12:06:02.433Z,5.78
2024-01-05T12:08:29.314Z,5.92
2024-01-05T12:10:57.576Z,5.82
2024-01-05T12:13:26.475Z,5.79
2024-01-05T12:16:01.602Z,5.84
2024-01-05T12:18:37.296Z,5.73
2024-01-05T12:21:07.201Z,5.71
2024-01-05T12:23:34.458Z,5.75
2024-01-05T12:26:09.373Z,5.66
2024-01-05T12:28:37.855Z,5.70
2024-01-05T12:31:06.051Z,5.82
2024-01-05T12:33:34.922Z,5.79
2024-01-05T12:36:01.645Z,5.87
2024-01-05T12:38:29.889Z,5.83
2024-01-05T12:41:10.590Z,5.91
2024-01-05T12:43:37.904Z,5.95
2024-01-05T12:46:06.181Z,5.93
2024-01-05T12:48:33.775Z,6.08
2024-01-05T12:51:09.003Z,5.92
2024-01-05T12:53:36.369Z,6.02
2024-01-05T12:56:18.456Z,6.04
2024-01-05T12:58:47.391Z,5.93
2024-01-05T13:01:18.705Z,5.90
2024-01-05T13:03:53.488Z,5.98
2024-01-05T13:06:22.042Z,5.92
2024-01-05T13:08:48.855Z,5.99
2024-01-05T13:11:15.399Z,5.97
2024-01-05T13:13:41.775Z,5.86
2024-01-05T13:16:08.353Z,5.85
2024-01-05T13:18:34.992Z,5.80
2024-01-05T13:21:01.461Z,5.78
2024-01-05T13:23:30.337Z,5.70
2024-01-05T13:25:56.727Z,5.70
2024-01-05T13:28:23.128Z,5.61
2024-01-05T13:30:49.654Z,5.62
2024-01-05T13:33:16.385Z,5.62
2024-01-05T13:35:42.922Z,5.67
2024-01-05T13:38:09.395Z,5.81
2024-01-05T13:40:37.532Z,5.81
2024-01-05T13:43:04.310Z,5.81
2024-01-05T13:45:30.957Z,5.85
2024-01-05T13:47:57.476Z,5.77
2024-01-05T13:50:23.869Z,5.82
2024-01-05T13:52:50.252Z,5.70
2024-01-05T13:55:16.881Z,5.73
2024-01-05T13:57:43.692Z,5.74
2024-01-05T14:00:10.648Z,5.69
2024-01-05T14:02:37.148Z,5.67
2024-01-05T14:05:05.402Z,5.78
2024-01-05T14:07:31.958Z,5.81
2024-01-05T14:09:58.927Z,5.80
2024-01-05T14:12:25.604Z,5.82
2024-01-05T14:14:52.586Z,5.77
2024-01-05T14:17:18.985Z,5.88
2024-01-05T14:19:46.877Z,5.77
2024-01-05T14:22:13.375Z,5.66
2024-01-05T14:24:40.896Z,5.62
2024-01-05T14:27:07.431Z,5.69
2024-01-05T14:29:33.901Z,5.73
2024-01-05T14:32:01.462Z,5.56
2024-01-05T14:34:28.171Z,5.55
2024-01-05T14:36:54.835Z,5.66
2024-01-05T14:39:23.752Z,5.55
2024-01-05T14:41:50.256Z,5.55
2024-01-05T14:44:16.629Z,5.63
2024-01-05T14:46:43.081Z,5.67
2024-01-05T14:49:09.578Z,5.56
2024-01-05T14:51:36.061Z,5.62
2024-01-05T14:54:02.659Z,5.61
2024-01-05T14:56:30.945Z,5.63
2024-01-05T14:58:57.413Z,5.44
2024-01-05T15:01:23.809Z,5.42
2024-01-05T15:03:50.412Z,5.45
2024-01-05T15:06:17.052Z,5.32
2024-01-05T15:08:43.577Z,5.26
2024-01-05T15:11:17.898Z,5.28
2024-01-05T15:13:44.340Z,5.29
2024-01-05T15:16:10.756Z,5.28
2024-01-05T15:18:37.263Z,5.16
2024-01-05T15:21:06.514Z,5.10
2024-01-05T15:23:34.673Z,5.03
2024-01-05T15:26:01.839Z,5.08
2024-01-05T15:28:29.011Z,5.06
2024-01-05T15:30:55.740Z,5.03
2024-01-05T15:33:22.317Z,5.11
2024-01-05T15:35:49.680Z,5.01
2024-01-05T15:38:16.298Z,4.94
2024-01-05T15:40:42.737Z,4.90
2024-01-05T15:43:09.359Z,4.81
2024-01-05T15:45:35.955Z,4.88
2024-01-05T15:48:02.710Z,4.85
2024-01-05T15:50:29.311Z,4.76
2024-01-05T15:52:55.783Z,4.79
2024-01-05T15:55:23.397Z,4.81
2024-01-05T15:57:50.024Z,4.77
2024-01-05T16:00:16.798Z,4.74
2024-01-05T16:02:43.385Z,4.70
2024-01-05T16:05:10.058Z,4.76
2024-01-05T16:07:36.680Z,4.75
2024-01-05T16:10:05.018Z,4.71
2024-01-05T16:12:31.744Z,4.75
2024-01-05T16:14:58.171Z,4.81
2024-01-05T16:17:24.577Z,4.85
2024-01-05T16:19:51.043Z,4.90
2024-01-05T16:22:17.518Z,4.78
2024-01-05T16:24:44.093Z,4.87
2024-01-05T16:27:10.815Z,4.81
2024-01-05T16:29:37.262Z,4.86
2024-01-05T16:32:03.851Z,4.90
2024-01-05T16:34:30.484Z,4.88
2024-01-05T16:37:00.201Z,5.00
2024-01-05T16:39:26.666Z,5.01
2024-01-05T16:41:53.143Z,5.10
2024-01-05T16:44:19.542Z,5.00
2024-01-05T16:46:45.958Z,5.11
2024-01-05T16:49:12.550Z,5.04
2024-01-05T16:51:39.173Z,4.93
2024-01-05T16:54:06.028Z,5.11
2024-01-05T16:56:33.937Z,5.14
2024-01-05T16:59:00.329Z,5.12
2024-01-05T17:01:27.092Z,5.07
2024-01-05T17:03:57.901Z,5.13
2024-01-05T17:06:24.962Z,5.08
2024-01-05T17:08:51.385Z,5.09
2024-01-05T17:11:17.822Z,5.07
2024-01-05T17:13:44.208Z,5.06
2024-01-05T17:16:11.172Z,5.01
2024-01-05T17:18:39.113Z,5.06
2024-01-05T17:21:09.931Z,5.07
2024-01-05T17:23:37.219Z,5.04
2024-01-05T17:26:04.179Z,5.08
2024-01-05T17:28:30.670Z,5.06
2024-01-05T17:30:58.007Z,5.03
2024-01-05T17:33:25.957Z,5.06
2024-01-05T17:35:56.712Z,5.14
2024-01-05T17:38:23.186Z,5.14
2024-01-05T17:40:49.602Z,5.06
2024-01-05T17:43:16.032Z,5.11
2024-01-05T17:45:42.796Z,4.98
2024-01-05T17:48:09.415Z,5.10
2024-01-05T17:50:35.965Z,4.97
2024-01-05T17:53:02.407Z,4.91
2024-01-05T17:55:28.777Z,5.01
2024-01-05T17:57:55.700Z,5.02
2024-01-05T18:00:22.155Z,4.96
2024-01-05T18:02:48.638Z,5.06
2024-01-05T18:05:15.047Z,5.12
2024-01-05T18:07:42.376Z,4.97
2024-01-05T18:10:09.658Z,4.97
2024-01-05T18:12:36.391Z,5.02
2024-01-05T18:15:03.002Z,4.96
2024-01-05T18:17:29.522Z,4.86
2024-01-05T18:19:56.677Z,4.82
2024-01-05T18:22:23.172Z,4.86
2024-01-05T18:24:49.638Z,4.87
2024-01-05T18:27:16.143Z,4.75
2024-01-05T18:29:42.601Z,4.74
2024-01-05T18:32:09.670Z,4.70
2024-01-05T18:34:37.345Z,4.70
2024-01-05T18:37:04.050Z,4.91
2024-01-05T18:39:30.711Z,4.88
2024-01-05T18:41:57.502Z,4.95
2024-01-05T18:44:24.002Z,4.87
2024-01-05T18:46:53.065Z,4.86
2024-01-05T18:49:20.105Z,4.85
2024-01-05T18:51:46.729Z,4.78
2024-01-05T18:54:13.267Z,4.86
2024-01-05T18:56:39.784Z,4.86
2024-01-05T18:59:06.304Z,4.92
2024-01-05T19:01:33.343Z,4.86
2024-01-05T19:04:00.360Z,4.90
2024-01-05T19:06:27.309Z,4.83
2024-01-05T19:08:53.880Z,4.82
2024-01-05T19:11:20.543Z,4.82
2024-01-05T19:13:47.007Z,4.81
2024-01-05T19:16:14.006Z,4.80
2024-01-05T19:18:40.563Z,4.79
2024-01-05T19:21:07.219Z,4.78
2024-01-05T19:23:34.468Z,4.73
2024-01-05T19:26:01.185Z,4.73
2024-01-05T19:28:27.955Z,4.64
2024-01-05T19:30:55.518Z,4.65
2024-01-05T19:33:22.497Z,4.84
2024-01-05T19:35:49.501Z,4.65
2024-01-05T19:38:16.491Z,4.64
2024-01-05T19:40:44.649Z,4.86
2024-01-05T19:43:14.567Z,4.77
2024-01-05T19:45:42.408Z,4.73
2024-01-05T19:48:09.809Z,4.73
2024-01-05T19:50:38.507Z,4.68
2024-01-05T19:53:05.786Z,4.59
2024-01-05T19:55:33.092Z,4.70
2024-01-05T19:57:59.825Z,4.69
2024-01-05T20:00:26.451Z,4.61
2024-01-05T20:02:54.207Z,4.64
2024-01-05T20:05:21.472Z,4.57
2024-01-05T20:07:48.011Z,4.53
2024-01-05T20:10:14.416Z,4.52
2024-01-05T20:12:46.202Z,4.66
2024-01-05T20:15:12.897Z,4.63
2024-01-05T20:17:39.365Z,4.64
2024-01-05T20:20:06.220Z,4.70
2024-01-05T20:22:32.792Z,4.58
2024-01-05T20:24:59.283Z,4.53
2024-01-05T20:27:35.978Z,4.50
2024-01-05T20:30:02.474Z,4.52
2024-01-05T20:32:29.247Z,4.56
2024-01-05T20:34:55.887Z,4.55
2024-01-05T20:37:22.376Z,4.66
2024-01-05T20:39:49.037Z,4.66
2024-01-05T20:42:15.526Z,4.58
2024-01-05T20:44:44.061Z,4.77
2024-01-05T20:47:10.525Z,4.64
2024-01-05T20:49:37.035Z,4.50
2024-01-05T20:52:03.797Z,4.50
2024-01-05T20:54:30.262Z,4.45
2024-01-05T20:56:56.762Z,4.49
2024-01-05T20:59:23.202Z,4.48
2024-01-05T21:01:50.073Z,4.49
2024-01-05T21:04:17.115Z,4.38
2024-01-05T21:06:45.276Z,4.48
2024-01-05T21:09:12.996Z,4.58
2024-01-05T21:11:39.351Z,4.38
2024-01-05T21:14:05.765Z,4.30
2024-01-05T21:16:32.234Z,4.25
2024-01-05T21:18:59.290Z,4.29
2024-01-05T21:21:28.776Z,4.33
2024-01-05T21:23:56.957Z,4.26
2024-01-05T21:26:23.665Z,4.21
2024-01-05T21:28:50.099Z,4.12
2024-01-05T21:31:17.192Z,4.24
2024-01-05T21:33:45.388Z,4.26
2024-01-05T21:36:14.977Z,4.09
2024-01-05T21:38:41.528Z,4.28
2024-01-05T21:41:07.981Z,4.14
2024-01-05T21:43:34.552Z,4.05
2024-01-05T21:46:00.996Z,4.00
2024-01-05T21:48:27.622Z,3.98
2024-01-05T21:50:54.157Z,3.97
2024-01-05T21:53:20.717Z,3.88
2024-01-05T21:55:47.131Z,3.82
2024-01-05T21:58:14.039Z,3.79
2024-01-05T22:00:40.775Z,3.80
2024-01-05T22:03:07.412Z,3.74
2024-01-05T22:05:33.971Z,3.71
2024-01-05T22:08:00.861Z,3.64
2024-01-05T22:10:27.998Z,3.63
2024-01-05T22:12:54.839Z,3.54
2024-01-05T22:15:21.389Z,3.53
2024-01-05T22:17:47.881Z,3.46
2024-01-05T22:20:15.333Z,3.41
2024-01-05T22:22:42.097Z,3.41
2024-01-05T22:25:08.952Z,3.32
2024-01-05T22:27:35.733Z,3.23
2024-01-05T22:30:02.291Z,3.18
2024-01-05T22:32:31.346Z,3.19
2024-01-05T22:34:58.719Z,3.25
2024-01-05T22:37:25.281Z,3.10
2024-01-05T22:39:51.781Z,3.03
2024-01-05T22:42:18.297Z,2.92
2024-01-05T22:44:44.704Z,2.88
2024-01-05T22:47:11.092Z,2.86
2024-01-05T22:49:41.338Z,2.87
2024-01-05T22:52:08.826Z,2.88
2024-01-05T22:54:35.858Z,2.77
2024-01-05T22:57:03.815Z,2.76
2024-01-05T22:59:32.248Z,2.79
2024-01-05T23:01:59.398Z,2.70
2024-01-05T23:04:27.548Z,2.62
2024-01-05T23:07:00.455Z,2.62
2024-01-05T23:09:27.316Z,2.58
2024-01-05T23:11:54.057Z,2.55
2024-01-05T23:14:20.458Z,2.52
2024-01-05T23:16:48.281Z,2.49
2024-01-05T23:19:14.904Z,2.39
2024-01-05T23:21:41.927Z,2.50
2024-01-05T23:24:08.576Z,2.47
2024-01-05T23:26:35.067Z,2.42
2024-01-05T23:29:01.479Z,2.41
2024-01-05T23:31:28.040Z,2.40
2024-01-05T23:34:04.806Z,2.36
2024-01-05T23:36:39.622Z,2.33
2024-01-05T23:39:06.112Z,2.35
2024-01-05T23:41:32.548Z,2.32
2024-01-05T23:43:59.009Z,2.44
2024-01-05T23:46:25.402Z,2.50
2024-01-05T23:48:52.067Z,2.44
2024-01-05T23:51:18.527Z,2.41
2024-01-05T23:53:45.063Z,2.34
2024-01-05T23:56:11.517Z,2.28
2024-01-05T23:58:37.968Z,2.24
